createdAt,value
2023-04-23T00:00:36.682Z,91915.63
2023-04-23T00:03:12.991Z,91916.34
2023-04-23T00:05:42.692Z,91915.25
2023-04-23T00:08:12.882Z,91918.97
2023-04-23T00:10:42.027Z,91923.28
2023-04-23T00:13:11.196Z,91913.28
2023-04-23T00:15:40.441Z,91928.28
2023-04-23T00:18:10.275Z,91917.69
2023-04-23T00:20:38.726Z,91920.41
2023-04-23T00:23:07.200Z,91915.63
2023-04-23T00:25:35.656Z,91918.44
2023-04-23T00:28:04.207Z,91917.13
2023-04-23T00:30:32.693Z,91916.53
2023-04-23T00:33:01.509Z,91893.66
2023-04-23T00:35:31.381Z,91907.16
2023-04-23T00:37:59.804Z,91904.00
2023-04-23T00:40:28.256Z,91905.91
2023-04-23T00:42:59.059Z,91901.94
2023-04-23T00:45:27.567Z,91900.44
2023-04-23T00:47:57.678Z,91898.38
2023-04-23T00:50:26.355Z,91900.56
2023-04-23T00:52:56.216Z,91891.13
2023-04-23T00:55:24.928Z,91901.50
2023-04-23T00:57:54.197Z,91899.81
2023-04-23T01:00:23.098Z,91903.72
2023-04-23T01:02:53.234Z,91895.16
2023-04-23T01:05:22.626Z,91897.25
2023-04-23T01:07:51.293Z,91896.44
2023-04-23T01:10:21.643Z,91899.72
2023-04-23T01:12:50.596Z,91895.53
2023-04-23T01:15:19.064Z,91900.81
2023-04-23T01:17:47.788Z,91884.72
2023-04-23T01:20:16.490Z,91900.19
2023-04-23T01:22:46.394Z,91904.00
2023-04-23T01:25:14.995Z,91905.53
2023-04-23T01:27:43.608Z,91903.06
2023-04-23T01:30:13.381Z,91903.19
2023-04-23T01:32:43.777Z,91883.31
2023-04-23T01:35:13.300Z,91896.69
2023-04-23T01:37:42.515Z,91897.13
2023-04-23T01:40:13.213Z,91898.69
2023-04-23T01:42:42.264Z,91904.13
2023-04-23T01:45:12.060Z,91895.72
2023-04-23T01:47:41.174Z,91896.53
2023-04-23T01:50:10.771Z,91905.78
2023-04-23T01:52:40.438Z,91898.81
2023-04-23T01:55:11.179Z,91901.81
2023-04-23T01:57:39.662Z,91901.91
2023-04-23T02:00:11.550Z,91899.66
2023-04-23T02:02:42.763Z,91904.06
2023-04-23T02:05:14.711Z,91892.38
2023-04-23T02:07:43.975Z,91896.28
2023-04-23T02:10:14.659Z,91890.53
2023-04-23T02:12:43.485Z,91888.88
2023-04-23T02:15:12.962Z,91897.50
2023-04-23T02:17:41.848Z,91892.91
2023-04-23T02:20:11.886Z,91907.06
2023-04-23T02:22:42.630Z,91895.66
2023-04-23T02:25:12.113Z,91888.31
2023-04-23T02:27:41.909Z,91890.53
2023-04-23T02:30:11.612Z,91893.91
2023-04-23T02:32:41.871Z,91885.44
2023-04-23T02:35:11.287Z,91881.09
2023-04-23T02:37:39.784Z,91894.06
2023-04-23T02:40:10.381Z,91886.44
2023-04-23T02:42:39.106Z,91884.16
2023-04-23T02:45:11.415Z,91885.59
2023-04-23T02:47:40.417Z,91885.00
2023-04-23T02:50:10.076Z,91886.81
2023-04-23T02:52:38.631Z,91883.47
2023-04-23T02:55:09.571Z,91886.47
2023-04-23T02:57:38.771Z,91879.19
2023-04-23T03:00:12.408Z,91889.28
2023-04-23T03:02:41.038Z,91887.75
2023-04-23T03:05:10.621Z,91876.97
2023-04-23T03:07:39.050Z,91891.66
2023-04-23T03:10:09.070Z,91894.34
2023-04-23T03:12:37.627Z,91885.44
2023-04-23T03:15:07.457Z,91898.94
2023-04-23T03:17:38.655Z,91896.16
2023-04-23T03:20:11.626Z,91894.78
2023-04-23T03:22:40.173Z,91887.56
2023-04-23T03:25:09.822Z,91892.50
2023-04-23T03:27:40.300Z,91885.59
2023-04-23T03:30:10.589Z,91887.91
2023-04-23T03:32:40.536Z,91889.22
2023-04-23T03:35:10.305Z,91889.44
2023-04-23T03:37:38.777Z,91895.56
2023-04-23T03:40:09.364Z,91877.50
2023-04-23T03:42:38.046Z,91873.69
2023-04-23T03:45:08.286Z,91877.78
2023-04-23T03:47:36.933Z,91874.38
2023-04-23T03:50:09.164Z,91876.34
2023-04-23T03:52:37.852Z,91879.41
2023-04-23T03:55:07.405Z,91883.25
2023-04-23T03:57:36.011Z,91881.34
2023-04-23T04:00:08.323Z,91886.00
2023-04-23T04:02:36.942Z,91890.94
2023-04-23T04:05:09.798Z,91883.78
2023-04-23T04:07:38.578Z,91891.13
2023-04-23T04:10:08.909Z,91894.16
2023-04-23T04:12:37.427Z,91891.50
2023-04-23T04:15:07.155Z,91888.84
2023-04-23T04:17:35.826Z,91878.44
2023-04-23T04:20:04.393Z,91879.44
2023-04-23T04:22:34.497Z,91877.88
2023-04-23T04:25:03.217Z,91877.88
2023-04-23T04:27:33.736Z,91877.88
2023-04-23T04:30:04.704Z,91873.06
2023-04-23T04:32:33.862Z,91872.28
2023-04-23T04:35:02.728Z,91863.09
2023-04-23T04:37:32.117Z,91875.28
2023-04-23T04:40:02.715Z,91879.41
2023-04-23T04:42:31.193Z,91888.59
2023-04-23T04:45:00.872Z,91886.69
2023-04-23T04:47:29.652Z,91875.59
2023-04-23T04:49:58.199Z,91865.97
2023-04-23T04:52:26.699Z,91880.13
2023-04-23T04:54:55.145Z,91886.97
2023-04-23T04:57:25.000Z,91884.41
2023-04-23T04:59:54.039Z,91877.97
2023-04-23T05:02:23.444Z,91878.59
2023-04-23T05:04:52.488Z,91884.44
2023-04-23T05:07:20.995Z,91883.94
2023-04-23T05:09:49.442Z,91877.41
2023-04-23T05:12:17.909Z,91878.16
2023-04-23T05:14:47.725Z,91874.75
2023-04-23T05:17:16.156Z,91879.28
2023-04-23T05:19:44.591Z,91882.66
2023-04-23T05:22:13.332Z,91880.72
2023-04-23T05:24:42.083Z,91887.22
2023-04-23T05:27:11.030Z,91890.75
2023-04-23T05:29:39.454Z,91885.69
2023-04-23T05:32:09.377Z,91879.03
2023-04-23T05:34:37.868Z,91876.75
2023-04-23T05:37:06.453Z,91874.38
2023-04-23T05:39:34.904Z,91875.31
2023-04-23T05:42:03.841Z,91879.22
2023-04-23T05:44:32.308Z,91888.00
2023-04-23T05:47:01.269Z,91882.94
2023-04-23T05:49:31.121Z,91867.53
2023-04-23T05:51:59.725Z,91874.38
2023-04-23T05:54:28.167Z,91868.81
2023-04-23T05:56:56.962Z,91870.75
2023-04-23T05:59:25.778Z,91874.56
2023-04-23T06:01:54.318Z,91871.59
2023-04-23T06:04:23.035Z,91874.13
2023-04-23T06:06:52.998Z,91873.00
2023-04-23T06:09:21.455Z,91881.47
2023-04-23T06:11:50.739Z,91885.25
2023-04-23T06:14:19.239Z,91880.94
2023-04-23T06:16:47.740Z,91877.31
2023-04-23T06:19:16.228Z,91871.13
2023-04-23T06:21:44.725Z,91870.31
2023-04-23T06:24:14.644Z,91866.59
2023-04-23T06:26:43.119Z,91865.84
2023-04-23T06:29:11.611Z,91875.34
2023-04-23T06:31:41.674Z,91873.41
2023-04-23T06:34:10.313Z,91866.94
2023-04-23T06:36:39.007Z,91863.19
2023-04-23T06:39:07.496Z,91854.75
2023-04-23T06:41:37.430Z,91839.38
2023-04-23T06:44:06.228Z,91839.53
2023-04-23T06:46:35.010Z,91836.91
2023-04-23T06:49:03.599Z,91831.19
2023-04-23T06:51:32.545Z,91837.91
2023-04-23T06:54:01.552Z,91841.78
2023-04-23T06:56:30.035Z,91844.09
2023-04-23T06:58:59.841Z,91836.22
2023-04-23T07:01:28.553Z,91843.13
2023-04-23T07:03:57.377Z,91835.09
2023-04-23T07:06:26.826Z,91841.50
2023-04-23T07:08:55.253Z,91831.53
2023-04-23T07:11:23.746Z,91829.81
2023-04-23T07:13:52.232Z,91836.03
2023-04-23T07:16:23.227Z,91831.75
2023-04-23T07:18:51.751Z,91831.25
2023-04-23T07:21:20.234Z,91827.66
2023-04-23T07:23:48.721Z,91819.97
2023-04-23T07:26:18.011Z,91832.22
2023-04-23T07:28:47.459Z,91814.13
2023-04-23T07:31:16.190Z,91814.00
2023-04-23T07:33:45.986Z,91808.13
2023-04-23T07:36:14.726Z,91805.22
2023-04-23T07:38:43.802Z,91821.53
2023-04-23T07:41:12.262Z,91814.59
2023-04-23T07:43:41.765Z,91809.84
2023-04-23T07:46:10.670Z,91801.34
2023-04-23T07:48:39.168Z,91784.56
2023-04-23T07:51:09.535Z,91798.19
2023-04-23T07:53:38.233Z,91794.53
2023-04-23T07:56:07.254Z,91790.47
2023-04-23T07:58:35.729Z,91783.03
2023-04-23T08:01:04.259Z,91771.56
2023-04-23T08:03:32.968Z,91771.59
2023-04-23T08:06:01.546Z,91781.50
2023-04-23T08:08:31.439Z,91781.13
2023-04-23T08:11:00.118Z,91785.66
2023-04-23T08:13:28.567Z,91783.50
2023-04-23T08:15:57.059Z,91780.13
2023-04-23T08:18:25.626Z,91780.00
2023-04-23T08:20:57.557Z,91777.38
2023-04-23T08:23:26.142Z,91776.63
2023-04-23T08:25:56.035Z,91779.13
2023-04-23T08:28:24.509Z,91778.09
2023-04-23T08:30:52.954Z,91764.44
2023-04-23T08:33:21.564Z,91775.63
2023-04-23T08:35:50.249Z,91770.16
2023-04-23T08:38:18.803Z,91770.47
2023-04-23T08:40:47.650Z,91758.94
2023-04-23T08:43:21.908Z,91758.84
2023-04-23T08:45:51.047Z,91758.28
2023-04-23T08:48:20.893Z,91755.75
2023-04-23T08:50:50.139Z,91752.44
2023-04-23T08:53:21.117Z,91755.50
2023-04-23T08:55:52.177Z,91755.75
2023-04-23T08:58:22.606Z,91752.34
2023-04-23T09:00:51.409Z,91759.25
2023-04-23T09:03:20.906Z,91761.44
2023-04-23T09:05:51.002Z,91749.25
2023-04-23T09:08:20.923Z,91757.97
2023-04-23T09:10:50.652Z,91762.22
2023-04-23T09:13:19.302Z,91739.78
2023-04-23T09:15:49.203Z,91746.59
2023-04-23T09:18:18.552Z,91739.41
2023-04-23T09:20:47.445Z,91734.56
2023-04-23T09:23:16.794Z,91730.97
2023-04-23T09:25:45.472Z,91718.78
2023-04-23T09:28:15.183Z,91727.53
2023-04-23T09:30:45.989Z,91723.69
2023-04-23T09:33:18.674Z,91711.59
2023-04-23T09:35:48.162Z,91719.66
2023-04-23T09:38:18.150Z,91712.03
2023-04-23T09:40:46.636Z,91716.31
2023-04-23T09:43:15.255Z,91708.78
2023-04-23T09:45:50.634Z,91708.66
2023-04-23T09:48:22.450Z,91698.03
2023-04-23T09:50:50.920Z,91700.09
2023-04-23T09:53:21.698Z,91696.66
2023-04-23T09:55:50.153Z,91699.09
2023-04-23T09:58:19.451Z,91695.47
2023-04-23T10:00:48.125Z,91699.88
2023-04-23T10:03:16.669Z,91699.53
2023-04-23T10:06:00.194Z,91689.22
2023-04-23T10:08:30.038Z,91691.47
2023-04-23T10:11:13.710Z,91686.44
2023-04-23T10:13:48.627Z,91693.38
2023-04-23T10:16:23.116Z,91686.03
2023-04-23T10:18:55.406Z,91693.66
2023-04-23T10:21:46.320Z,91686.75
2023-04-23T10:24:22.133Z,91682.31
2023-04-23T10:26:54.063Z,91687.81
2023-04-23T10:29:28.613Z,91690.91
2023-04-23T10:31:59.099Z,91699.78
2023-04-23T10:34:29.081Z,91692.09
2023-04-23T10:37:00.405Z,91697.50
2023-04-23T10:39:33.786Z,91683.81
2023-04-23T10:42:05.792Z,91693.47
2023-04-23T10:44:56.740Z,91681.56
2023-04-23T10:47:24.493Z,91678.84
2023-04-23T10:49:52.986Z,91678.53
2023-04-23T10:52:25.798Z,91671.94
2023-04-23T10:55:00.936Z,91674.75
2023-04-23T10:57:29.690Z,91667.72
2023-04-23T10:59:59.079Z,91675.72
2023-04-23T11:02:29.390Z,91668.91
2023-04-23T11:05:01.577Z,91657.03
2023-04-23T11:07:34.740Z,91656.31
2023-04-23T11:10:13.884Z,91641.72
2023-04-23T11:12:43.040Z,91642.28
2023-04-23T11:15:14.431Z,91637.06
2023-04-23T11:18:03.215Z,91636.84
2023-04-23T11:20:31.948Z,91637.44
2023-04-23T11:23:01.875Z,91641.47
2023-04-23T11:25:30.695Z,91631.66
2023-04-23T11:27:59.991Z,91630.56
2023-04-23T11:30:31.012Z,91639.44
2023-04-23T11:33:01.429Z,91619.56
2023-04-23T11:35:37.864Z,91622.69
2023-04-23T11:38:11.401Z,91620.63
2023-04-23T11:40:40.762Z,91616.34
2023-04-23T11:43:09.806Z,91608.53
2023-04-23T11:45:38.668Z,91608.38
2023-04-23T11:48:08.573Z,91608.72
2023-04-23T11:50:38.659Z,91610.22
2023-04-23T11:53:08.018Z,91601.25
2023-04-23T11:55:38.463Z,91606.69
2023-04-23T11:58:06.910Z,91601.75
2023-04-23T12:00:35.408Z,91609.34
2023-04-23T12:03:06.193Z,91592.88
2023-04-23T12:05:37.724Z,91586.19
2023-04-23T12:08:10.970Z,91579.25
2023-04-23T12:10:49.150Z,91590.25
2023-04-23T12:13:18.714Z,91578.66
2023-04-23T12:15:50.200Z,91576.88
2023-04-23T12:18:19.918Z,91575.56
2023-04-23T12:20:48.393Z,91575.81
2023-04-23T12:23:17.137Z,91564.88
2023-04-23T12:25:47.163Z,91555.81
2023-04-23T12:28:15.615Z,91558.63
2023-04-23T12:30:46.224Z,91549.66
2023-04-23T12:33:15.115Z,91556.56
2023-04-23T12:35:45.124Z,91547.34
2023-04-23T12:38:24.906Z,91550.19
2023-04-23T12:40:55.823Z,91540.19
2023-04-23T12:43:24.529Z,91542.53
2023-04-23T12:45:53.338Z,91543.53
2023-04-23T12:48:22.019Z,91547.50
2023-04-23T12:50:50.740Z,91566.25
2023-04-23T12:53:20.205Z,91559.31
2023-04-23T12:55:50.270Z,91561.09
2023-04-23T12:58:20.379Z,91553.25
2023-04-23T13:00:48.856Z,91547.19
2023-04-23T13:03:19.687Z,91544.88
2023-04-23T13:05:48.218Z,91542.03
2023-04-23T13:08:16.675Z,91547.78
2023-04-23T13:10:46.288Z,91542.34
2023-04-23T13:13:16.102Z,91534.09
2023-04-23T13:15:47.082Z,91523.84
2023-04-23T13:18:15.825Z,91526.00
2023-04-23T13:20:44.303Z,91523.22
2023-04-23T13:23:13.410Z,91515.97
2023-04-23T13:25:42.338Z,91518.06
2023-04-23T13:28:10.869Z,91513.25
2023-04-23T13:30:39.312Z,91504.16
2023-04-23T13:33:09.299Z,91498.69
2023-04-23T13:35:38.256Z,91497.94
2023-04-23T13:38:07.061Z,91495.66
2023-04-23T13:40:35.605Z,91499.16
2023-04-23T13:43:04.073Z,91503.25
2023-04-23T13:45:32.802Z,91478.69
2023-04-23T13:48:02.575Z,91481.13
2023-04-23T13:50:32.513Z,91485.97
2023-04-23T13:53:01.006Z,91483.53
2023-04-23T13:55:29.584Z,91475.66
2023-04-23T13:57:58.940Z,91472.31
2023-04-23T14:00:30.396Z,91473.19
2023-04-23T14:02:59.012Z,91473.50
2023-04-23T14:05:27.776Z,91462.94
2023-04-23T14:07:57.724Z,91455.09
2023-04-23T14:10:26.501Z,91462.94
2023-04-23T14:12:55.478Z,91450.81
2023-04-23T14:15:24.243Z,91445.97
2023-04-23T14:17:53.165Z,91430.66
2023-04-23T14:20:22.419Z,91436.66
2023-04-23T14:22:56.706Z,91422.53
2023-04-23T14:25:32.523Z,91424.00
2023-04-23T14:28:11.207Z,91432.63
2023-04-23T14:30:42.569Z,91421.44
2023-04-23T14:33:11.262Z,91410.53
2023-04-23T14:35:43.547Z,91410.25
2023-04-23T14:38:12.270Z,91414.66
2023-04-23T14:40:43.018Z,91433.56
2023-04-23T14:43:15.451Z,91486.22
2023-04-23T14:45:44.598Z,91543.81
2023-04-23T14:48:13.388Z,91538.34
2023-04-23T14:50:41.899Z,91545.59
2023-04-23T14:53:10.816Z,91511.22
2023-04-23T14:55:40.843Z,91453.50
2023-04-23T14:58:10.833Z,91456.41
2023-04-23T15:00:39.786Z,91448.56
2023-04-23T15:03:11.243Z,91454.69
2023-04-23T15:05:42.003Z,91454.22
2023-04-23T15:08:10.723Z,91454.19
2023-04-23T15:10:39.213Z,91452.06
2023-04-23T15:13:39.615Z,91452.97
2023-04-23T15:16:29.019Z,91447.84
2023-04-23T15:19:10.093Z,91446.88
2023-04-23T15:21:39.661Z,91453.03
2023-04-23T15:24:08.574Z,91464.50
2023-04-23T15:26:37.811Z,91458.75
2023-04-23T15:29:09.240Z,91463.63
2023-04-23T15:31:37.989Z,91457.03
2023-04-23T15:34:09.189Z,91457.59
2023-04-23T15:36:38.535Z,91463.44
2023-04-23T15:39:07.962Z,91459.63
2023-04-23T15:41:40.317Z,91451.16
2023-04-23T15:44:12.890Z,91456.28
2023-04-23T15:46:41.373Z,91450.56
2023-04-23T15:49:10.083Z,91452.31
2023-04-23T15:51:38.888Z,91447.28
2023-04-23T15:54:08.878Z,91459.41
2023-04-23T15:56:37.899Z,91455.63
2023-04-23T15:59:07.793Z,91461.59
2023-04-23T16:01:37.954Z,91460.00
2023-04-23T16:04:10.997Z,91467.81
2023-04-23T16:06:40.121Z,91456.75
2023-04-23T16:09:08.950Z,91473.66
2023-04-23T16:11:38.000Z,91478.13
2023-04-23T16:14:09.516Z,91471.84
2023-04-23T16:16:39.906Z,91466.28
2023-04-23T16:19:08.666Z,91474.63
2023-04-23T16:21:37.202Z,91459.63
2023-04-23T16:24:07.795Z,91465.34
2023-04-23T16:26:37.682Z,91458.09
2023-04-23T16:29:21.581Z,91459.81
2023-04-23T16:31:52.749Z,91461.22
2023-04-23T16:34:21.242Z,91461.72
2023-04-23T16:36:49.770Z,91459.44
2023-04-23T16:39:18.250Z,91457.50
2023-04-23T16:41:47.167Z,91448.44
2023-04-23T16:44:15.593Z,91450.72
2023-04-23T16:46:44.217Z,91446.03
2023-04-23T16:49:14.485Z,91456.69
2023-04-23T16:51:42.955Z,91454.94
2023-04-23T16:54:11.460Z,91451.03
2023-04-23T16:56:39.967Z,91447.88
2023-04-23T16:59:08.528Z,91457.50
2023-04-23T17:01:37.252Z,91455.13
2023-04-23T17:04:05.934Z,91459.47
2023-04-23T17:06:36.189Z,91449.28
2023-04-23T17:09:06.026Z,91444.50
2023-04-23T17:11:34.831Z,91445.78
2023-04-23T17:14:03.290Z,91451.56
2023-04-23T17:16:32.080Z,91442.94
2023-04-23T17:19:01.835Z,91456.25
2023-04-23T17:21:30.435Z,91452.34
2023-04-23T17:24:00.298Z,91457.72
2023-04-23T17:26:29.001Z,91463.63
2023-04-23T17:28:57.560Z,91461.09
2023-04-23T17:31:26.150Z,91457.09
2023-04-23T17:33:56.215Z,91451.72
2023-04-23T17:36:24.837Z,91450.03
2023-04-23T17:38:53.524Z,91447.09
2023-04-23T17:41:23.899Z,91450.72
2023-04-23T17:43:52.431Z,91447.13
2023-04-23T17:46:21.069Z,91445.41
2023-04-23T17:48:49.654Z,91450.13
2023-04-23T17:51:18.426Z,91440.91
2023-04-23T17:53:48.677Z,91435.44
2023-04-23T17:56:17.458Z,91446.03
2023-04-23T17:58:47.313Z,91450.69
2023-04-23T18:01:17.662Z,91452.03
2023-04-23T18:03:48.286Z,91477.38
2023-04-23T18:06:16.933Z,91485.25
2023-04-23T18:08:45.462Z,91491.09
2023-04-23T18:11:13.995Z,91502.44
2023-04-23T18:13:42.505Z,91529.00
2023-04-23T18:16:12.595Z,91531.47
2023-04-23T18:18:41.112Z,91542.69
2023-04-23T18:21:10.186Z,91564.38
2023-04-23T18:23:39.763Z,91567.56
2023-04-23T18:26:08.201Z,91539.81
2023-04-23T18:28:37.505Z,91552.88
2023-04-23T18:31:06.149Z,91551.19
2023-04-23T18:33:44.889Z,91536.41
2023-04-23T18:36:28.045Z,91543.56
2023-04-23T18:38:56.681Z,91547.69
2023-04-23T18:41:25.186Z,91544.06
2023-04-23T18:43:53.667Z,91548.78
2023-04-23T18:46:23.342Z,91549.25
2023-04-23T18:49:01.687Z,91545.56
2023-04-23T18:51:38.641Z,91533.66
2023-04-23T18:54:07.483Z,91531.19
2023-04-23T18:56:36.221Z,91526.66
2023-04-23T18:59:04.682Z,91536.88
2023-04-23T19:01:33.220Z,91536.94
2023-04-23T19:04:03.907Z,91538.81
2023-04-23T19:06:32.472Z,91539.81
2023-04-23T19:09:01.466Z,91529.53
2023-04-23T19:11:34.484Z,91542.81
2023-04-23T19:14:03.089Z,91534.03
2023-04-23T19:16:31.706Z,91536.00
2023-04-23T19:19:00.312Z,91529.94
2023-04-23T19:21:30.374Z,91534.13
2023-04-23T19:23:59.435Z,91552.84
2023-04-23T19:26:28.004Z,91543.22
2023-04-23T19:28:56.987Z,91565.63
2023-04-23T19:31:25.561Z,91556.31
2023-04-23T19:33:54.067Z,91561.81
2023-04-23T19:36:22.726Z,91562.38
2023-04-23T19:38:52.562Z,91571.47
2023-04-23T19:41:21.053Z,91569.53
2023-04-23T19:43:49.637Z,91566.19
2023-04-23T19:46:18.146Z,91578.84
2023-04-23T19:48:46.930Z,91572.84
2023-04-23T19:51:15.408Z,91569.03
2023-04-23T19:53:43.890Z,91564.19
2023-04-23T19:56:15.246Z,91561.25
2023-04-23T19:58:43.697Z,91564.56
2023-04-23T20:01:13.169Z,91572.28
2023-04-23T20:03:43.176Z,91577.94
2023-04-23T20:06:12.625Z,91575.34
2023-04-23T20:09:02.718Z,91576.34
2023-04-23T20:11:33.311Z,91585.50
2023-04-23T20:14:01.966Z,91585.50
2023-04-23T20:16:30.803Z,91580.41
2023-04-23T20:18:59.849Z,91593.75
2023-04-23T20:21:28.332Z,91583.97
2023-04-23T20:23:57.024Z,91579.91
2023-04-23T20:26:25.574Z,91579.03
2023-04-23T20:28:55.438Z,91580.25
2023-04-23T20:31:23.897Z,91594.66
2023-04-23T20:33:52.344Z,91590.69
2023-04-23T20:36:21.180Z,91595.81
2023-04-23T20:38:49.724Z,91595.88
2023-04-23T20:41:18.759Z,91600.56
2023-04-23T20:43:47.257Z,91597.47
2023-04-23T20:46:17.224Z,91601.16
2023-04-23T20:48:45.715Z,91597.41
2023-04-23T20:51:15.807Z,91597.16
2023-04-23T20:53:44.319Z,91595.06
2023-04-23T20:56:12.821Z,91587.34
2023-04-23T20:58:41.452Z,91582.06
2023-04-23T21:01:11.726Z,91585.09
2023-04-23T21:03:42.449Z,91588.88
2023-04-23T21:06:12.277Z,91593.53
2023-04-23T21:08:42.684Z,91585.81
2023-04-23T21:11:13.985Z,91589.69
2023-04-23T21:13:42.529Z,91589.72
2023-04-23T21:16:11.627Z,91588.75
2023-04-23T21:18:43.864Z,91586.56
2023-04-23T21:21:12.391Z,91593.50
2023-04-23T21:23:40.894Z,91589.47
2023-04-23T21:26:09.587Z,91582.75
2023-04-23T21:28:38.547Z,91587.91
2023-04-23T21:31:15.544Z,91588.25
2023-04-23T21:33:45.699Z,91578.34
2023-04-23T21:36:14.219Z,91577.88
2023-04-23T21:38:42.684Z,91576.91
2023-04-23T21:41:11.163Z,91576.59
2023-04-23T21:43:40.595Z,91568.94
2023-04-23T21:46:09.073Z,91568.97
2023-04-23T21:48:37.552Z,91556.47
2023-04-23T21:51:08.133Z,91559.00
2023-04-23T21:53:36.588Z,91560.22
2023-04-23T21:56:05.814Z,91544.66
2023-04-23T21:58:35.266Z,91548.78
2023-04-23T22:01:04.067Z,91548.28
2023-04-23T22:03:38.483Z,91557.50
2023-04-23T22:06:10.773Z,91555.59
2023-04-23T22:08:40.718Z,91551.34
2023-04-23T22:11:10.018Z,91543.97
2023-04-23T22:13:38.578Z,91535.22
2023-04-23T22:16:20.440Z,91531.25
2023-04-23T22:18:55.965Z,91531.91
2023-04-23T22:21:25.962Z,91534.59
2023-04-23T22:23:54.496Z,91526.66
2023-04-23T22:26:23.265Z,91525.81
2023-04-23T22:28:51.830Z,91527.63
2023-04-23T22:31:20.308Z,91526.41
2023-04-23T22:33:48.848Z,91524.75
2023-04-23T22:36:17.641Z,91515.28
2023-04-23T22:38:47.532Z,91511.81
2023-04-23T22:41:16.001Z,91522.25
2023-04-23T22:43:44.448Z,91507.84
2023-04-23T22:46:12.955Z,91512.28
2023-04-23T22:48:44.149Z,91498.22
2023-04-23T22:51:12.652Z,91513.66
2023-04-23T22:53:41.301Z,91521.28
2023-04-23T22:56:11.137Z,91513.25
2023-04-23T22:58:39.851Z,91513.53
2023-04-23T23:01:08.357Z,91508.44
2023-04-23T23:03:36.996Z,91499.78
2023-04-23T23:06:06.234Z,91503.91
2023-04-23T23:08:34.993Z,91499.56
2023-04-23T23:11:03.469Z,91488.13
2023-04-23T23:13:33.350Z,91489.34
2023-04-23T23:16:05.769Z,91471.88
2023-04-23T23:18:34.363Z,91482.53
2023-04-23T23:21:03.221Z,91476.13
2023-04-23T23:23:32.000Z,91475.38
2023-04-23T23:26:00.541Z,91471.09
2023-04-23T23:28:29.441Z,91462.56
2023-04-23T23:30:59.578Z,91466.22
2023-04-23T23:33:28.337Z,91467.47
2023-04-23T23:35:57.443Z,91475.03
2023-04-23T23:38:26.153Z,91473.28
2023-04-23T23:40:54.633Z,91476.44
2023-04-23T23:43:23.139Z,91486.09
2023-04-23T23:45:51.675Z,91503.94
2023-04-23T23:48:21.574Z,91482.53
2023-04-23T23:50:50.061Z,91486.88
2023-04-23T23:53:18.606Z,91485.28
2023-04-23T23:55:47.375Z,91487.69
2023-04-23T23:58:15.856Z,91480.06
